Time;durP1;ratioP1;P1;durP2;ratioP2;P2;SDS_P1;SDS_P2;PMS_P1;PMS_P2;Temp;Humidity;BMP_temperature;BMP_pressure;BME280_temperature;BME280_humidity;BME280_pressure;Samples;Min_cycle;Max_cycle;Signal;HPM_P1;HPM_P2
2023/04/28 00:00:38;;;;;;;;;;;;;;;;;;5022406;28;19945;-77
2023/04/28 00:03:03;;;;;;;;;;;;;;;;;;5052981;28;19913;-77
2023/04/28 00:05:29;;;;;;;;;;;;;;;;;;5064714;22;19932;-78
2023/04/28 00:07:54;;;;;;;;;;;;;;;;;;5053316;28;20299;-76
2023/04/28 00:10:20;;;;;;;;;;;;;;;;;;5037160;28;20387;-77
2023/04/28 00:12:45;;;;;;;;;;;;;;;;;;5037380;28;19912;-76
2023/04/28 00:15:12;;;;;;;;;;;;;;;;;;5037496;28;19927;-76
2023/04/28 00:17:37;;;;;;;;;;;;;;;;;;5053948;28;19913;-77
2023/04/28 00:20:02;;;;;;;;;;;;;;;;;;5052564;28;19908;-78
2023/04/28 00:22:28;;;;;;;;;;;;;;;;;;5053751;28;19917;-77
2023/04/28 00:24:54;;;;;;;;;;;;;;;;;;5052422;28;20406;-77
2023/04/28 00:27:19;;;;;;;;;;;;;;;;;;5052769;28;19916;-78
2023/04/28 00:29:44;;;;;;;;;;;;;;;;;;5052756;28;19913;-77
2023/04/28 00:32:10;;;;;;;;;;;;;;;;;;5054722;28;19919;-76
2023/04/28 00:34:36;;;;;;;;;;;;;;;;;;5052174;28;19978;-78
2023/04/28 00:37:01;;;;;;;;;;;;;;;;;;5052251;28;19913;-78
2023/04/28 00:39:27;;;;;;;;;;;;;;;;;;5053866;28;20385;-78
2023/04/28 00:41:52;;;;;;;;;;;;;;;;;;5052205;28;19913;-77
2023/04/28 00:44:17;;;;;;;;;;;;;;;;;;5053148;28;19921;-77
2023/04/28 00:46:43;;;;;;;;;;;;;;;;;;5051737;28;20406;-78
2023/04/28 00:49:08;;;;;;;;;;;;;;;;;;5053046;28;19956;-78
2023/04/28 00:51:33;;;;;;;;;;;;;;;;;;5052861;28;20322;-75
2023/04/28 00:53:59;;;;;;;;;;;;;;;;;;5053022;28;19924;-77
2023/04/28 00:56:29;;;;;;;;;;;;;;;;;;5052003;28;19912;-77
2023/04/28 00:58:55;;;;;;;;;;;;;;;;;;5052817;28;19912;-76
2023/04/28 01:01:20;;;;;;;;;;;;;;;;;;5052081;28;19913;-78
2023/04/28 01:03:45;;;;;;;;;;;;;;;;;;5053243;28;19967;-77
2023/04/28 01:06:11;;;;;;;;;;;;;;;;;;5035580;28;20264;-76
2023/04/28 01:08:38;;;;;;;;;;;;;;;;;;5052281;28;19913;-76
2023/04/28 01:11:06;;;;;;;;;;;;;;;;;;5053479;28;19913;-78
2023/04/28 01:13:51;;;;;;;;;;;;;;;;;;5053051;28;19924;-78
2023/04/28 01:16:17;;;;;;;;;;;;;;;;;;5055813;28;19935;-76
2023/04/28 01:18:43;;;;;;;;;;;;;;;;;;5059501;28;20375;-78
2023/04/28 01:21:08;;;;;;;;;;;;;;;;;;5065559;28;19924;-76
2023/04/28 01:23:34;;;;;;;;;;;;;;;;;;5063860;28;20359;-77
2023/04/28 01:26:00;;;;;;;;;;;;;;;;;;5063139;28;19909;-76
2023/04/28 01:28:25;;;;;;;;;;;;;;;;;;5063059;28;19917;-77
2023/04/28 01:30:51;;;;;;;;;;;;;;;;;;5061356;28;20471;-76
2023/04/28 01:33:16;;;;;;;;;;;;;;;;;;5061471;28;19917;-76
2023/04/28 01:35:41;;;;;;;;;;;;;;;;;;5057818;28;19912;-79
2023/04/28 01:38:08;;;;;;;;;;;;;;;;;;5051799;28;19917;-77
2023/04/28 01:40:34;;;;;;;;;;;;;;;;;;5050774;28;19920;-77
2023/04/28 01:42:59;;;;;;;;;;;;;;;;;;5048826;28;19913;-77
2023/04/28 01:45:24;;;;;;;;;;;;;;;;;;5032816;28;20022;-76
2023/04/28 01:47:51;;;;;;;;;;;;;;;;;;5046936;28;20501;-78
2023/04/28 01:50:18;;;;;;;;;;;;;;;;;;5037033;28;19913;-75
2023/04/28 01:52:43;;;;;;;;;;;;;;;;;;5053058;28;19913;-77
2023/04/28 01:55:09;;;;;;;;;;;;;;;;;;5052584;28;20020;-77
2023/04/28 01:57:35;;;;;;;;;;;;;;;;;;5053256;28;19913;-76
2023/04/28 02:00:01;;;;;;;;;;;;;;;;;;5052991;28;19967;-76
2023/04/28 02:02:27;;;;;;;;;;;;;;;;;;5052545;28;19927;-75
2023/04/28 02:04:52;;;;;;;;;;;;;;;;;;5051932;28;19916;-76
2023/04/28 02:07:18;;;;;;;;;;;;;;;;;;5051700;28;20379;-78
2023/04/28 02:09:43;;;;;;;;;;;;;;;;;;5052022;28;19995;-76
2023/04/28 02:12:08;;;;;;;;;;;;;;;;;;5034097;28;19923;-77
2023/04/28 02:14:34;;;;;;;;;;;;;;;;;;5050546;28;19916;-77
2023/04/28 02:17:01;;;;;;;;;;;;;;;;;;5052074;28;19919;-77
2023/04/28 02:19:27;;;;;;;;;;;;;;;;;;5051903;28;19913;-76
2023/04/28 02:21:52;;;;;;;;;;;;;;;;;;5051952;28;19920;-76
2023/04/28 02:24:17;;;;;;;;;;;;;;;;;;5051791;28;19920;-77
2023/04/28 02:26:43;;;;;;;;;;;;;;;;;;5052085;28;19913;-77
2023/04/28 02:29:08;;;;;;;;;;;;;;;;;;5048880;28;19921;-77
2023/04/28 02:31:33;;;;;;;;;;;;;;;;;;5047294;28;20390;-77
2023/04/28 02:33:59;;;;;;;;;;;;;;;;;;5051548;28;19960;-77
2023/04/28 02:36:24;;;;;;;;;;;;;;;;;;5050406;28;19913;-77
2023/04/28 02:38:50;;;;;;;;;;;;;;;;;;5051759;28;20487;-77
2023/04/28 02:41:15;;;;;;;;;;;;;;;;;;5050649;28;19912;-78
2023/04/28 02:43:41;;;;;;;;;;;;;;;;;;5045064;28;20394;-78
2023/04/28 02:46:06;;;;;;;;;;;;;;;;;;5051615;28;19965;-76
2023/04/28 02:48:34;;;;;;;;;;;;;;;;;;5051539;28;20003;-78
2023/04/28 02:50:59;;;;;;;;;;;;;;;;;;5050229;28;19960;-77
2023/04/28 02:53:25;;;;;;;;;;;;;;;;;;5053045;28;19948;-76
2023/04/28 02:55:50;;;;;;;;;;;;;;;;;;5054144;28;20398;-77
2023/04/28 02:58:16;;;;;;;;;;;;;;;;;;5054314;28;19913;-78
2023/04/28 03:00:42;;;;;;;;;;;;;;;;;;5053943;28;19920;-78
2023/04/28 03:03:07;;;;;;;;;;;;;;;;;;5054033;28;19913;-76
2023/04/28 03:05:32;;;;;;;;;;;;;;;;;;5053863;28;20386;-76
2023/04/28 03:07:59;;;;;;;;;;;;;;;;;;5053614;28;19917;-77
2023/04/28 03:10:25;;;;;;;;;;;;;;;;;;5053567;28;20291;-77
2023/04/28 03:12:50;;;;;;;;;;;;;;;;;;5053635;28;19917;-77
2023/04/28 03:15:16;;;;;;;;;;;;;;;;;;5053444;28;19920;-77
2023/04/28 03:17:42;;;;;;;;;;;;;;;;;;5054780;28;20268;-78
2023/04/28 03:20:07;;;;;;;;;;;;;;;;;;5044372;28;19917;-77
2023/04/28 03:22:33;;;;;;;;;;;;;;;;;;5053840;28;19913;-76
2023/04/28 03:24:58;;;;;;;;;;;;;;;;;;5036730;28;19916;-76
2023/04/28 03:27:25;;;;;;;;;;;;;;;;;;5053397;28;19917;-77
2023/04/28 03:29:52;;;;;;;;;;;;;;;;;;5052969;28;19912;-77
2023/04/28 03:32:17;;;;;;;;;;;;;;;;;;5018690;28;19987;-76
2023/04/28 03:34:43;;;;;;;;;;;;;;;;;;5041846;28;19924;-77
2023/04/28 03:37:08;;;;;;;;;;;;;;;;;;5053229;28;19917;-77
2023/04/28 03:39:34;;;;;;;;;;;;;;;;;;5053058;28;19913;-77
2023/04/28 03:41:59;;;;;;;;;;;;;;;;;;5053359;28;20989;-77
2023/04/28 03:44:57;;;;;;;;;;;;;;;;;;5054277;28;19913;-77
2023/04/28 03:47:22;;;;;;;;;;;;;;;;;;5036714;28;19935;-78
2023/04/28 03:49:48;;;;;;;;;;;;;;;;;;5036281;28;20291;-77
2023/04/28 03:52:13;;;;;;;;;;;;;;;;;;5053056;28;19912;-77
2023/04/28 03:54:40;;;;;;;;;;;;;;;;;;5053120;28;19970;-79
2023/04/28 03:57:06;;;;;;;;;;;;;;;;;;5053060;28;19920;-76
2023/04/28 03:59:32;;;;;;;;;;;;;;;;;;5052843;28;19913;-77
2023/04/28 04:01:57;;;;;;;;;;;;;;;;;;5054131;28;20388;-78
2023/04/28 04:04:23;;;;;;;;;;;;;;;;;;5053429;28;19920;-77
2023/04/28 04:06:48;;;;;;;;;;;;;;;;;;5052900;28;19917;-78
2023/04/28 04:09:14;;;;;;;;;;;;;;;;;;5053628;28;19913;-76
2023/04/28 04:11:39;;;;;;;;;;;;;;;;;;5053045;28;20004;-77
2023/04/28 04:14:05;;;;;;;;;;;;;;;;;;5036818;28;19921;-78
2023/04/28 04:16:30;;;;;;;;;;;;;;;;;;5053336;28;19913;-78
2023/04/28 04:18:56;;;;;;;;;;;;;;;;;;5050625;28;20406;-78
2023/04/28 04:21:28;;;;;;;;;;;;;;;;;;5048371;28;20004;-78
2023/04/28 04:23:54;;;;;;;;;;;;;;;;;;5050108;28;19945;-78
2023/04/28 04:26:20;;;;;;;;;;;;;;;;;;5037243;28;19952;-76
2023/04/28 04:28:47;;;;;;;;;;;;;;;;;;5055118;28;19919;-77
2023/04/28 04:31:14;;;;;;;;;;;;;;;;;;5053903;28;19913;-76
2023/04/28 04:33:52;;;;;;;;;;;;;;;;;;5056002;28;19916;-77
2023/04/28 04:36:19;;;;;;;;;;;;;;;;;;5048438;28;19923;-77
2023/04/28 04:38:44;;;;;;;;;;;;;;;;;;5045891;28;19952;-76
2023/04/28 04:41:16;;;;;;;;;;;;;;;;;;5059929;28;19966;-75
2023/04/28 04:43:42;;;;;;;;;;;;;;;;;;5061681;28;19967;-75
2023/04/28 04:46:07;;;;;;;;;;;;;;;;;;5062984;28;19917;-76
2023/04/28 04:48:33;;;;;;;;;;;;;;;;;;5057949;28;20436;-77
2023/04/28 04:50:59;;;;;;;;;;;;;;;;;;5059103;28;19920;-77
2023/04/28 04:53:24;;;;;;;;;;;;;;;;;;5054574;28;20371;-76
2023/04/28 04:55:50;;;;;;;;;;;;;;;;;;5054673;28;19936;-77
2023/04/28 04:58:16;;;;;;;;;;;;;;;;;;5034172;28;19913;-76
2023/04/28 05:00:42;;;;;;;;;;;;;;;;;;5042046;28;19920;-76
2023/04/28 05:03:08;;;;;;;;;;;;;;;;;;5052123;28;19917;-78
2023/04/28 05:05:34;;;;;;;;;;;;;;;;;;5051620;28;20326;-76
2023/04/28 05:08:22;;;;;;;;;;;;;;;;;;5052647;28;19913;-77
2023/04/28 05:10:48;;;;;;;;;;;;;;;;;;5053076;28;19912;-76
2023/04/28 05:13:13;;;;;;;;;;;;;;;;;;5051594;28;19920;-75
2023/04/28 05:15:39;;;;;;;;;;;;;;;;;;5050687;28;19916;-77
2023/04/28 05:18:25;;;;;;;;;;;;;;;;;;5051420;28;20433;-77
2023/04/28 05:20:51;;;;;;;;;;;;;;;;;;5049888;28;19917;-77
2023/04/28 05:23:17;;;;;;;;;;;;;;;;;;5030972;28;19912;-76
2023/04/28 05:25:43;;;;;;;;;;;;;;;;;;5035101;28;19986;-78
2023/04/28 05:28:08;;;;;;;;;;;;;;;;;;5036203;28;19917;-77
2023/04/28 05:30:34;;;;;;;;;;;;;;;;;;5051094;28;19913;-77
2023/04/28 05:32:59;;;;;;;;;;;;;;;;;;5034692;28;20334;-77
2023/04/28 05:35:25;;;;;;;;;;;;;;;;;;5051385;28;19917;-76
2023/04/28 05:37:50;;;;;;;;;;;;;;;;;;5046811;28;20390;-76
2023/04/28 05:40:15;;;;;;;;;;;;;;;;;;5050423;28;20280;-77
2023/04/28 05:42:41;;;;;;;;;;;;;;;;;;5050807;28;19913;-76
2023/04/28 05:45:06;;;;;;;;;;;;;;;;;;5052135;28;19999;-75
2023/04/28 05:47:32;;;;;;;;;;;;;;;;;;5052078;28;19920;-77
2023/04/28 05:49:57;;;;;;;;;;;;;;;;;;5050766;28;19916;-77
2023/04/28 05:52:23;;;;;;;;;;;;;;;;;;5052196;28;19913;-75
2023/04/28 05:54:48;;;;;;;;;;;;;;;;;;5046067;28;20350;-78
2023/04/28 05:57:13;;;;;;;;;;;;;;;;;;5031937;28;19932;-77
2023/04/28 05:59:39;;;;;;;;;;;;;;;;;;5014252;28;19924;-76
2023/04/28 06:02:04;;;;;;;;;;;;;;;;;;5018949;28;20402;-77
2023/04/28 06:04:30;;;;;;;;;;;;;;;;;;5051548;28;19917;-77
2023/04/28 06:06:55;;;;;;;;;;;;;;;;;;5050534;28;19919;-75
2023/04/28 06:09:21;;;;;;;;;;;;;;;;;;5050263;28;20372;-77
2023/04/28 06:11:46;;;;;;;;;;;;;;;;;;5049629;28;19936;-77
2023/04/28 06:14:12;;;;;;;;;;;;;;;;;;5019969;28;20035;-77
2023/04/28 06:16:37;;;;;;;;;;;;;;;;;;5050386;28;19944;-77
2023/04/28 06:19:02;;;;;;;;;;;;;;;;;;5051865;28;19920;-77
2023/04/28 06:21:28;;;;;;;;;;;;;;;;;;5043222;28;19966;-77
2023/04/28 06:23:53;;;;;;;;;;;;;;;;;;5050277;28;19912;-77
2023/04/28 06:26:19;;;;;;;;;;;;;;;;;;5051643;28;20410;-77
2023/04/28 06:28:44;;;;;;;;;;;;;;;;;;5054641;28;19919;-75
2023/04/28 06:31:10;;;;;;;;;;;;;;;;;;5054257;28;19935;-76
2023/04/28 06:33:35;;;;;;;;;;;;;;;;;;5054099;28;20350;-76
2023/04/28 06:36:01;;;;;;;;;;;;;;;;;;5055164;28;19948;-76
2023/04/28 06:38:26;;;;;;;;;;;;;;;;;;5055301;28;19913;-77
2023/04/28 06:40:52;;;;;;;;;;;;;;;;;;5054086;28;19952;-77
2023/04/28 06:43:18;;;;;;;;;;;;;;;;;;5045971;28;20372;-76
2023/04/28 06:45:53;;;;;;;;;;;;;;;;;;5054293;28;19920;-77
2023/04/28 06:48:18;;;;;;;;;;;;;;;;;;5053109;28;19916;-77
2023/04/28 06:50:44;;;;;;;;;;;;;;;;;;5045389;28;19913;-76
2023/04/28 06:53:10;;;;;;;;;;;;;;;;;;5053840;28;20012;-75
2023/04/28 06:55:35;;;;;;;;;;;;;;;;;;5053455;28;20406;-74
2023/04/28 06:58:01;;;;;;;;;;;;;;;;;;5054037;28;19913;-77
2023/04/28 07:00:26;;;;;;;;;;;;;;;;;;5054460;28;19924;-78
2023/04/28 07:02:52;;;;;;;;;;;;;;;;;;5054857;28;19919;-76
2023/04/28 07:05:17;;;;;;;;;;;;;;;;;;5054607;28;20367;-78
2023/04/28 07:07:42;;;;;;;;;;;;;;;;;;5055066;28;19912;-76
2023/04/28 07:10:08;;;;;;;;;;;;;;;;;;5053636;28;19916;-77
2023/04/28 07:12:33;;;;;;;;;;;;;;;;;;5054903;28;20279;-76
2023/04/28 07:14:58;;;;;;;;;;;;;;;;;;5054544;28;19967;-77
2023/04/28 07:17:24;;;;;;;;;;;;;;;;;;5054691;28;20375;-76
2023/04/28 07:19:49;;;;;;;;;;;;;;;;;;5054274;28;19917;-76
2023/04/28 07:22:15;;;;;;;;;;;;;;;;;;5054663;28;19999;-76
2023/04/28 07:24:40;;;;;;;;;;;;;;;;;;5054847;28;20389;-76
2023/04/28 07:27:05;;;;;;;;;;;;;;;;;;5054853;28;20451;-76
2023/04/28 07:29:33;;;;;;;;;;;;;;;;;;5053239;28;19912;-78
2023/04/28 07:32:00;;;;;;;;;;;;;;;;;;5055044;28;19924;-76
2023/04/28 07:34:26;;;;;;;;;;;;;;;;;;5053067;28;19917;-75
2023/04/28 07:36:51;;;;;;;;;;;;;;;;;;5054942;28;19956;-75
2023/04/28 07:39:17;;;;;;;;;;;;;;;;;;5027778;28;20018;-75
2023/04/28 07:41:42;;;;;;;;;;;;;;;;;;5035270;28;20287;-77
2023/04/28 07:44:08;;;;;;;;;;;;;;;;;;5051930;28;19956;-76
2023/04/28 07:46:33;;;;;;;;;;;;;;;;;;5054044;28;19920;-75
2023/04/28 07:48:58;;;;;;;;;;;;;;;;;;5054328;28;20452;-76
2023/04/28 07:51:24;;;;;;;;;;;;;;;;;;5054239;28;19995;-76
2023/04/28 07:53:49;;;;;;;;;;;;;;;;;;5055057;28;20379;-76
2023/04/28 07:56:15;;;;;;;;;;;;;;;;;;5044731;28;20334;-77
2023/04/28 07:58:41;;;;;;;;;;;;;;;;;;5054998;28;20373;-77
2023/04/28 08:01:06;;;;;;;;;;;;;;;;;;5061251;28;19935;-77
2023/04/28 08:03:31;;;;;;;;;;;;;;;;;;5060044;28;19913;-77
2023/04/28 08:05:57;;;;;;;;;;;;;;;;;;5065924;28;19924;-76
2023/04/28 08:08:22;;;;;;;;;;;;;;;;;;5065177;28;19917;-75
2023/04/28 08:10:49;;;;;;;;;;;;;;;;;;5068284;28;19913;-77
2023/04/28 08:13:15;;;;;;;;;;;;;;;;;;5061504;28;19957;-76
2023/04/28 08:15:41;;;;;;;;;;;;;;;;;;5058977;28;19917;-77
2023/04/28 08:18:06;;;;;;;;;;;;;;;;;;5057968;28;19948;-76
2023/04/28 08:20:31;;;;;;;;;;;;;;;;;;5053134;28;20390;-75
2023/04/28 08:22:57;;;;;;;;;;;;;;;;;;5054493;28;19917;-76
2023/04/28 08:25:22;;;;;;;;;;;;;;;;;;5052284;28;19913;-75
2023/04/28 08:27:48;;;;;;;;;;;;;;;;;;5053355;28;20012;-76
2023/04/28 08:30:13;;;;;;;;;;;;;;;;;;5035653;28;19913;-77
2023/04/28 08:32:39;;;;;;;;;;;;;;;;;;5051819;28;19917;-75
2023/04/28 08:35:04;;;;;;;;;;;;;;;;;;5053224;28;19916;-77
2023/04/28 08:37:30;;;;;;;;;;;;;;;;;;5053255;28;19959;-77
2023/04/28 08:40:01;;;;;;;;;;;;;;;;;;5051892;28;20431;-76
2023/04/28 08:42:26;;;;;;;;;;;;;;;;;;5052149;28;20026;-77
2023/04/28 08:44:52;;;;;;;;;;;;;;;;;;5052954;28;20330;-76
2023/04/28 08:47:17;;;;;;;;;;;;;;;;;;5053229;28;19935;-76
2023/04/28 08:49:43;;;;;;;;;;;;;;;;;;5042555;28;20389;-77
2023/04/28 08:52:08;;;;;;;;;;;;;;;;;;5051623;28;20383;-75
2023/04/28 08:54:33;;;;;;;;;;;;;;;;;;5049244;28;19961;-75
2023/04/28 08:56:59;;;;;;;;;;;;;;;;;;5045493;28;20402;-75
2023/04/28 08:59:24;;;;;;;;;;;;;;;;;;5052896;28;19966;-75
2023/04/28 09:01:50;;;;;;;;;;;;;;;;;;5051385;28;20294;-78
2023/04/28 09:04:15;;;;;;;;;;;;;;;;;;5052475;28;20348;-77
2023/04/28 09:06:41;;;;;;;;;;;;;;;;;;5053067;28;19920;-78
2023/04/28 09:09:06;;;;;;;;;;;;;;;;;;5052843;28;19908;-76
2023/04/28 09:11:31;;;;;;;;;;;;;;;;;;5052720;28;20268;-77
2023/04/28 09:13:57;;;;;;;;;;;;;;;;;;5051995;28;19920;-76
2023/04/28 09:16:22;;;;;;;;;;;;;;;;;;5035190;28;19962;-77
2023/04/28 09:18:48;;;;;;;;;;;;;;;;;;5034665;28;20020;-78
2023/04/28 09:21:13;;;;;;;;;;;;;;;;;;5051877;28;19912;-77
2023/04/28 09:23:38;;;;;;;;;;;;;;;;;;5052206;28;19920;-78
2023/04/28 09:26:04;;;;;;;;;;;;;;;;;;5050960;28;19969;-76
2023/04/28 09:28:29;;;;;;;;;;;;;;;;;;5052726;28;19916;-86
2023/04/28 09:30:55;;;;;;;;;;;;;;;;;;5052572;28;20376;-85
2023/04/28 09:33:21;;;;;;;;;;;;;;;;;;5052315;28;19913;-86
2023/04/28 09:35:47;;;;;;;;;;;;;;;;;;5051927;28;19920;-85
2023/04/28 09:38:12;;;;;;;;;;;;;;;;;;5051535;28;19919;-83
2023/04/28 09:40:38;;;;;;;;;;;;;;;;;;5032995;28;20063;-83
2023/04/28 09:43:03;;;;;;;;;;;;;;;;;;5046142;28;19920;-84
2023/04/28 09:45:28;;;;;;;;;;;;;;;;;;5050028;28;19917;-84
2023/04/28 09:47:54;;;;;;;;;;;;;;;;;;5060785;28;19919;-83
2023/04/28 09:50:19;;;;;;;;;;;;;;;;;;5051848;28;19955;-82
2023/04/28 09:52:47;;;;;;;;;;;;;;;;;;5056640;28;20412;-81
2023/04/28 09:55:13;;;;;;;;;;;;;;;;;;5056461;28;19921;-81
2023/04/28 09:57:38;;;;;;;;;;;;;;;;;;5051326;28;19925;-83
2023/04/28 10:00:07;;;;;;;;;;;;;;;;;;5051748;28;19921;-81
2023/04/28 10:02:33;;;;;;;;;;;;;;;;;;5035732;28;19920;-83
2023/04/28 10:04:59;;;;;;;;;;;;;;;;;;5053337;28;19942;-83
2023/04/28 10:07:24;;;;;;;;;;;;;;;;;;5047847;28;19914;-81
2023/04/28 10:09:50;;;;;;;;;;;;;;;;;;5036556;28;20338;-84
2023/04/28 10:12:15;;;;;;;;;;;;;;;;;;5054187;28;20256;-85
2023/04/28 10:14:41;;;;;;;;;;;;;;;;;;5056641;28;19920;-84
2023/04/28 10:17:06;;;;;;;;;;;;;;;;;;5055816;28;19919;-81
2023/04/28 10:19:32;;;;;;;;;;;;;;;;;;5056127;28;19912;-84
2023/04/28 10:21:58;;;;;;;;;;;;;;;;;;5055820;28;19913;-83
2023/04/28 10:24:23;;;;;;;;;;;;;;;;;;5045995;28;19917;-83
2023/04/28 10:26:49;;;;;;;;;;;;;;;;;;5046074;28;19917;-84
2023/04/28 10:29:14;;;;;;;;;;;;;;;;;;5035808;28;20000;-83
2023/04/28 10:31:39;;;;;;;;;;;;;;;;;;5033962;28;20055;-84
2023/04/28 10:34:05;;;;;;;;;;;;;;;;;;5035501;28;19978;-82
2023/04/28 10:36:30;;;;;;;;;;;;;;;;;;5052251;28;19913;-84
2023/04/28 10:39:01;;;;;;;;;;;;;;;;;;5055942;28;20375;-83
2023/04/28 10:41:27;;;;;;;;;;;;;;;;;;5047286;28;19912;-81
2023/04/28 10:43:52;;;;;;;;;;;;;;;;;;5051949;28;20513;-79
2023/04/28 10:46:17;;;;;;;;;;;;;;;;;;5051216;28;19913;-77
2023/04/28 10:48:43;;;;;;;;;;;;;;;;;;5050305;28;19932;-78
2023/04/28 10:51:08;;;;;;;;;;;;;;;;;;5052897;28;20443;-77
2023/04/28 10:53:34;;;;;;;;;;;;;;;;;;5051882;28;19923;-77
2023/04/28 10:55:59;;;;;;;;;;;;;;;;;;5043660;28;20019;-77
2023/04/28 10:58:24;;;;;;;;;;;;;;;;;;5051530;28;20394;-78
2023/04/28 11:00:50;;;;;;;;;;;;;;;;;;5051072;28;20303;-75
2023/04/28 11:03:16;;;;;;;;;;;;;;;;;;5050666;28;19912;-85
2023/04/28 11:05:41;;;;;;;;;;;;;;;;;;5049063;28;20389;-80
2023/04/28 11:08:07;;;;;;;;;;;;;;;;;;5035996;28;19919;-80
2023/04/28 11:10:32;;;;;;;;;;;;;;;;;;5050525;28;19944;-83
2023/04/28 11:12:58;;;;;;;;;;;;;;;;;;5053760;28;20015;-82
2023/04/28 11:15:23;;;;;;;;;;;;;;;;;;5039327;28;20276;-83
2023/04/28 11:17:49;;;;;;;;;;;;;;;;;;5041189;28;19951;-82
2023/04/28 11:20:14;;;;;;;;;;;;;;;;;;5059188;28;19920;-77
2023/04/28 11:22:39;;;;;;;;;;;;;;;;;;5066285;28;19917;-76
2023/04/28 11:25:05;;;;;;;;;;;;;;;;;;5067241;28;19939;-76
2023/04/28 11:27:32;;;;;;;;;;;;;;;;;;5065356;28;19923;-77
2023/04/28 11:29:58;;;;;;;;;;;;;;;;;;5057990;28;19913;-77
2023/04/28 11:32:23;;;;;;;;;;;;;;;;;;5056015;28;19913;-76
2023/04/28 11:34:48;;;;;;;;;;;;;;;;;;5054785;28;20124;-77
2023/04/28 11:37:14;;;;;;;;;;;;;;;;;;5053587;28;20054;-75
2023/04/28 11:39:40;;;;;;;;;;;;;;;;;;5052911;28;19917;-76
2023/04/28 11:42:05;;;;;;;;;;;;;;;;;;5054280;28;19956;-77
2023/04/28 11:44:31;;;;;;;;;;;;;;;;;;5054294;28;19975;-76
2023/04/28 11:46:59;;;;;;;;;;;;;;;;;;5052991;28;19908;-76
2023/04/28 11:49:24;;;;;;;;;;;;;;;;;;5049576;28;20399;-77
2023/04/28 11:51:50;;;;;;;;;;;;;;;;;;5052658;28;19920;-77
2023/04/28 11:54:16;;;;;;;;;;;;;;;;;;5053048;28;19924;-77
2023/04/28 11:56:41;;;;;;;;;;;;;;;;;;5046538;28;19913;-75
2023/04/28 11:59:07;;;;;;;;;;;;;;;;;;5054040;28;20403;-77
2023/04/28 12:01:33;;;;;;;;;;;;;;;;;;5053903;28;20336;-75
2023/04/28 12:06:32;;;;;;;;;;;;;;;;;;5050712;28;19932;-78
2023/04/28 12:09:03;;;;;;;;;;;;;;;;;;5040595;28;19963;-76
2023/04/28 12:11:28;;;;;;;;;;;;;;;;;;5049407;28;20355;-77
2023/04/28 12:13:53;;;;;;;;;;;;;;;;;;5037418;28;19917;-78
2023/04/28 12:16:19;;;;;;;;;;;;;;;;;;5025545;28;19913;-77
2023/04/28 12:18:44;;;;;;;;;;;;;;;;;;5023239;28;19956;-77
2023/04/28 12:21:09;;;;;;;;;;;;;;;;;;5019691;28;20374;-77
2023/04/28 12:23:35;;;;;;;;;;;;;;;;;;5029735;28;19917;-76
2023/04/28 12:26:00;;;;;;;;;;;;;;;;;;5018146;28;20291;-77
2023/04/28 12:28:26;;;;;;;;;;;;;;;;;;5024524;28;20390;-77
2023/04/28 12:30:51;;;;;;;;;;;;;;;;;;5024651;28;19936;-76
2023/04/28 12:33:17;;;;;;;;;;;;;;;;;;5033803;28;19921;-77
2023/04/28 12:35:42;;;;;;;;;;;;;;;;;;5031527;28;19921;-76
2023/04/28 12:38:08;;;;;;;;;;;;;;;;;;5019076;28;20434;-77
2023/04/28 12:40:33;;;;;;;;;;;;;;;;;;5024049;28;19991;-77
2023/04/28 12:42:58;;;;;;;;;;;;;;;;;;5026202;28;20376;-77
2023/04/28 12:45:24;;;;;;;;;;;;;;;;;;5017671;28;19935;-77
2023/04/28 12:47:49;;;;;;;;;;;;;;;;;;5029855;28;19913;-76
2023/04/28 12:50:15;;;;;;;;;;;;;;;;;;5029442;28;20354;-77
2023/04/28 12:52:40;;;;;;;;;;;;;;;;;;5023676;28;20408;-77
2023/04/28 12:55:05;;;;;;;;;;;;;;;;;;5044203;28;19970;-77
2023/04/28 12:57:31;;;;;;;;;;;;;;;;;;5032457;28;19992;-77
2023/04/28 12:59:56;;;;;;;;;;;;;;;;;;5017332;28;19913;-76
2023/04/28 13:02:22;;;;;;;;;;;;;;;;;;5025505;28;20000;-77
2023/04/28 13:04:47;;;;;;;;;;;;;;;;;;5023572;28;19948;-75
2023/04/28 13:07:12;;;;;;;;;;;;;;;;;;5018367;28;19937;-77
2023/04/28 13:09:38;;;;;;;;;;;;;;;;;;5044499;28;19920;-77
2023/04/28 13:12:03;;;;;;;;;;;;;;;;;;5017647;28;19940;-77
2023/04/28 13:14:29;;;;;;;;;;;;;;;;;;5024011;28;19929;-77
2023/04/28 13:16:54;;;;;;;;;;;;;;;;;;5024675;28;20295;-75
2023/04/28 13:19:19;;;;;;;;;;;;;;;;;;5015648;28;20011;-77
2023/04/28 13:21:46;;;;;;;;;;;;;;;;;;5029339;28;19924;-77
2023/04/28 13:24:12;;;;;;;;;;;;;;;;;;5034277;28;19914;-77
2023/04/28 13:26:37;;;;;;;;;;;;;;;;;;5048186;28;19913;-77
2023/04/28 13:29:03;;;;;;;;;;;;;;;;;;5019589;28;20391;-77
2023/04/28 13:31:29;;;;;;;;;;;;;;;;;;5044325;28;19971;-77
2023/04/28 13:33:54;;;;;;;;;;;;;;;;;;5016226;28;19917;-77
2023/04/28 13:36:19;;;;;;;;;;;;;;;;;;5023578;28;19913;-77
2023/04/28 13:38:47;;;;;;;;;;;;;;;;;;5023121;28;19917;-77
2023/04/28 13:41:13;;;;;;;;;;;;;;;;;;5033474;28;20277;-77
2023/04/28 13:43:38;;;;;;;;;;;;;;;;;;5014157;28;20000;-78
2023/04/28 13:46:07;;;;;;;;;;;;;;;;;;5031466;28;19913;-77
2023/04/28 13:48:32;;;;;;;;;;;;;;;;;;5024712;28;19921;-77
2023/04/28 13:50:57;;;;;;;;;;;;;;;;;;5038185;28;19913;-77
2023/04/28 13:53:23;;;;;;;;;;;;;;;;;;5031879;28;19914;-77
2023/04/28 13:55:48;;;;;;;;;;;;;;;;;;5036404;28;19935;-76
2023/04/28 13:58:16;;;;;;;;;;;;;;;;;;5040253;28;20388;-74
2023/04/28 14:00:41;;;;;;;;;;;;;;;;;;5037291;28;20012;-76
2023/04/28 14:03:10;;;;;;;;;;;;;;;;;;5017900;28;19920;-77
2023/04/28 14:05:36;;;;;;;;;;;;;;;;;;5027247;28;19917;-76
2023/04/28 14:08:02;;;;;;;;;;;;;;;;;;5031870;28;20005;-77
2023/04/28 14:10:28;;;;;;;;;;;;;;;;;;5023519;28;20011;-76
2023/04/28 14:12:53;;;;;;;;;;;;;;;;;;5023544;28;20438;-76
2023/04/28 14:15:19;;;;;;;;;;;;;;;;;;5017013;28;20388;-77
2023/04/28 14:17:44;;;;;;;;;;;;;;;;;;5044671;28;19913;-77
2023/04/28 14:20:10;;;;;;;;;;;;;;;;;;5018559;28;19913;-77
2023/04/28 14:22:35;;;;;;;;;;;;;;;;;;5038291;28;20016;-78
2023/04/28 14:25:01;;;;;;;;;;;;;;;;;;5012934;28;20414;-77
2023/04/28 14:27:27;;;;;;;;;;;;;;;;;;5029828;28;19913;-76
2023/04/28 14:29:52;;;;;;;;;;;;;;;;;;5015739;28;19914;-77
2023/04/28 14:32:20;;;;;;;;;;;;;;;;;;5026908;28;19972;-76
2023/04/28 14:34:45;;;;;;;;;;;;;;;;;;5024894;28;19921;-77
2023/04/28 14:37:11;;;;;;;;;;;;;;;;;;5021847;28;19936;-77
2023/04/28 14:39:36;;;;;;;;;;;;;;;;;;5032760;28;20395;-77
2023/04/28 14:42:02;;;;;;;;;;;;;;;;;;5018345;28;19996;-77
2023/04/28 14:44:28;;;;;;;;;;;;;;;;;;5048724;28;19987;-76
2023/04/28 14:46:53;;;;;;;;;;;;;;;;;;5037315;28;20332;-77
2023/04/28 14:49:18;;;;;;;;;;;;;;;;;;5030910;28;19944;-76
2023/04/28 14:51:47;;;;;;;;;;;;;;;;;;5050649;28;19913;-77
2023/04/28 14:54:13;;;;;;;;;;;;;;;;;;5029683;28;19917;-77
2023/04/28 14:56:38;;;;;;;;;;;;;;;;;;5027229;28;19959;-77
2023/04/28 14:59:04;;;;;;;;;;;;;;;;;;5022003;28;19944;-76
2023/04/28 15:01:29;;;;;;;;;;;;;;;;;;5047523;28;19917;-77
2023/04/28 15:03:55;;;;;;;;;;;;;;;;;;5031897;28;19921;-77
2023/04/28 15:06:20;;;;;;;;;;;;;;;;;;5022022;28;20016;-77
2023/04/28 15:08:46;;;;;;;;;;;;;;;;;;5039951;28;19917;-77
2023/04/28 15:11:11;;;;;;;;;;;;;;;;;;5027936;28;20260;-77
2023/04/28 15:13:37;;;;;;;;;;;;;;;;;;5034768;28;19924;-77
2023/04/28 15:16:02;;;;;;;;;;;;;;;;;;5045465;28;19988;-76
2023/04/28 15:18:27;;;;;;;;;;;;;;;;;;5023413;28;19913;-76
2023/04/28 15:20:53;;;;;;;;;;;;;;;;;;5022023;28;20339;-76
2023/04/28 15:23:19;;;;;;;;;;;;;;;;;;5030222;28;20372;-77
2023/04/28 15:25:44;;;;;;;;;;;;;;;;;;5017084;28;20376;-76
2023/04/28 15:28:10;;;;;;;;;;;;;;;;;;5044357;28;19913;-76
2023/04/28 15:30:35;;;;;;;;;;;;;;;;;;5023109;28;19913;-77
2023/04/28 15:33:01;;;;;;;;;;;;;;;;;;5037222;28;19913;-76
2023/04/28 15:35:27;;;;;;;;;;;;;;;;;;5046347;28;20313;-77
2023/04/28 15:37:54;;;;;;;;;;;;;;;;;;5018660;28;19982;-77
2023/04/28 15:40:22;;;;;;;;;;;;;;;;;;5025593;28;19914;-77
2023/04/28 15:42:48;;;;;;;;;;;;;;;;;;5040407;28;19920;-76
2023/04/28 15:45:14;;;;;;;;;;;;;;;;;;5035190;28;20028;-77
2023/04/28 15:47:40;;;;;;;;;;;;;;;;;;5047027;28;19913;-77
2023/04/28 15:50:05;;;;;;;;;;;;;;;;;;5028978;28;20467;-76
2023/04/28 15:52:30;;;;;;;;;;;;;;;;;;5025714;28;19913;-77
2023/04/28 15:54:56;;;;;;;;;;;;;;;;;;5026379;28;19920;-76
2023/04/28 15:57:21;;;;;;;;;;;;;;;;;;5049218;28;19920;-77
2023/04/28 15:59:47;;;;;;;;;;;;;;;;;;5031973;28;20269;-76
2023/04/28 16:02:12;;;;;;;;;;;;;;;;;;5027999;28;19910;-77
2023/04/28 16:04:37;;;;;;;;;;;;;;;;;;5022209;28;20000;-78
2023/04/28 16:07:03;;;;;;;;;;;;;;;;;;5019730;28;19913;-76
2023/04/28 16:09:28;;;;;;;;;;;;;;;;;;5045993;28;19913;-78
2023/04/28 16:11:56;;;;;;;;;;;;;;;;;;5016088;28;20385;-76
2023/04/28 16:14:21;;;;;;;;;;;;;;;;;;5026123;28;19925;-77
2023/04/28 16:16:47;;;;;;;;;;;;;;;;;;5039776;28;19913;-77
2023/04/28 16:19:14;;;;;;;;;;;;;;;;;;5019150;28;19918;-76
2023/04/28 16:21:39;;;;;;;;;;;;;;;;;;5030142;28;20359;-76
2023/04/28 16:24:05;;;;;;;;;;;;;;;;;;5018874;28;19917;-77
2023/04/28 16:26:30;;;;;;;;;;;;;;;;;;5024898;28;19967;-77
2023/04/28 16:28:56;;;;;;;;;;;;;;;;;;5025692;28;20406;-77
2023/04/28 16:31:22;;;;;;;;;;;;;;;;;;5016499;28;19914;-77
2023/04/28 16:33:47;;;;;;;;;;;;;;;;;;5030021;28;19925;-79
2023/04/28 16:36:13;;;;;;;;;;;;;;;;;;5019791;28;19913;-77
2023/04/28 16:38:38;;;;;;;;;;;;;;;;;;5039288;28;19944;-77